sensor_id;sensor_type;location;lat;lon;timestamp;P1;durP1;ratioP1;P2;durP2;ratioP2
529;SDS011;251;48.704;9.210;2022-07-09T00:02:07;3.20;;;2.00;;
529;SDS011;251;48.704;9.210;2022-07-09T00:04:33;2.00;;;1.40;;
529;SDS011;251;48.704;9.210;2022-07-09T00:07:00;2.93;;;1.63;;
529;SDS011;251;48.704;9.210;2022-07-09T00:09:27;1.83;;;1.27;;
529;SDS011;251;48.704;9.210;2022-07-09T00:11:54;2.00;;;1.43;;
529;SDS011;251;48.704;9.210;2022-07-09T00:14:21;2.63;;;2.10;;
529;SDS011;251;48.704;9.210;2022-07-09T00:16:48;1.70;;;1.20;;
529;SDS011;251;48.704;9.210;2022-07-09T00:19:16;2.50;;;1.40;;
529;SDS011;251;48.704;9.210;2022-07-09T00:21:43;1.40;;;0.97;;
529;SDS011;251;48.704;9.210;2022-07-09T00:24:10;1.70;;;1.43;;
529;SDS011;251;48.704;9.210;2022-07-09T00:26:36;1.97;;;1.30;;
529;SDS011;251;48.704;9.210;2022-07-09T00:29:03;2.40;;;1.37;;
529;SDS011;251;48.704;9.210;2022-07-09T00:31:30;2.53;;;1.30;;
529;SDS011;251;48.704;9.210;2022-07-09T00:33:57;3.07;;;1.87;;
529;SDS011;251;48.704;9.210;2022-07-09T00:36:25;2.80;;;1.43;;
529;SDS011;251;48.704;9.210;2022-07-09T00:38:51;2.93;;;1.73;;
529;SDS011;251;48.704;9.210;2022-07-09T00:41:18;4.50;;;2.00;;
529;SDS011;251;48.704;9.210;2022-07-09T00:43:45;1.70;;;1.30;;
529;SDS011;251;48.704;9.210;2022-07-09T00:46:13;6.27;;;1.93;;
529;SDS011;251;48.704;9.210;2022-07-09T00:48:40;6.10;;;2.30;;
529;SDS011;251;48.704;9.210;2022-07-09T00:51:07;7.63;;;1.47;;
529;SDS011;251;48.704;9.210;2022-07-09T00:53:35;1.50;;;1.13;;
529;SDS011;251;48.704;9.210;2022-07-09T00:56:02;2.73;;;1.40;;
529;SDS011;251;48.704;9.210;2022-07-09T00:58:30;2.10;;;1.47;;
529;SDS011;251;48.704;9.210;2022-07-09T01:00:58;2.37;;;1.73;;
529;SDS011;251;48.704;9.210;2022-07-09T01:03:24;2.80;;;2.30;;
529;SDS011;251;48.704;9.210;2022-07-09T01:05:51;4.00;;;1.40;;
529;SDS011;251;48.704;9.210;2022-07-09T01:08:18;2.80;;;1.60;;
529;SDS011;251;48.704;9.210;2022-07-09T01:10:47;2.20;;;1.27;;
529;SDS011;251;48.704;9.210;2022-07-09T01:13:17;1.60;;;1.17;;
529;SDS011;251;48.704;9.210;2022-07-09T01:15:43;3.10;;;1.40;;
529;SDS011;251;48.704;9.210;2022-07-09T01:18:11;2.10;;;1.20;;
529;SDS011;251;48.704;9.210;2022-07-09T01:20:39;2.00;;;1.70;;
529;SDS011;251;48.704;9.210;2022-07-09T01:23:06;1.70;;;1.40;;
529;SDS011;251;48.704;9.210;2022-07-09T01:25:34;2.13;;;1.37;;
529;SDS011;251;48.704;9.210;2022-07-09T01:28:02;2.53;;;1.40;;
529;SDS011;251;48.704;9.210;2022-07-09T01:30:31;1.40;;;0.97;;
529;SDS011;251;48.704;9.210;2022-07-09T01:32:58;1.80;;;1.27;;
529;SDS011;251;48.704;9.210;2022-07-09T01:35:25;1.80;;;1.23;;
529;SDS011;251;48.704;9.210;2022-07-09T01:37:53;3.17;;;1.50;;
529;SDS011;251;48.704;9.210;2022-07-09T01:40:20;1.60;;;1.13;;
529;SDS011;251;48.704;9.210;2022-07-09T01:42:48;1.92;;;1.15;;
529;SDS011;251;48.704;9.210;2022-07-09T01:45:15;1.70;;;1.30;;
529;SDS011;251;48.704;9.210;2022-07-09T01:47:42;4.18;;;1.98;;
529;SDS011;251;48.704;9.210;2022-07-09T01:50:09;1.90;;;1.23;;
529;SDS011;251;48.704;9.210;2022-07-09T01:52:36;3.13;;;1.37;;
529;SDS011;251;48.704;9.210;2022-07-09T01:55:05;1.47;;;1.03;;
529;SDS011;251;48.704;9.210;2022-07-09T01:57:32;3.03;;;2.33;;
529;SDS011;251;48.704;9.210;2022-07-09T01:59:59;3.08;;;1.27;;
529;SDS011;251;48.704;9.210;2022-07-09T02:02:26;2.20;;;1.40;;
529;SDS011;251;48.704;9.210;2022-07-09T02:04:52;2.05;;;1.20;;
529;SDS011;251;48.704;9.210;2022-07-09T02:07:19;1.60;;;1.20;;
529;SDS011;251;48.704;9.210;2022-07-09T02:09:46;1.95;;;1.27;;
529;SDS011;251;48.704;9.210;2022-07-09T02:12:15;1.60;;;1.27;;
529;SDS011;251;48.704;9.210;2022-07-09T02:14:42;1.83;;;1.23;;
529;SDS011;251;48.704;9.210;2022-07-09T02:17:09;3.47;;;1.77;;
529;SDS011;251;48.704;9.210;2022-07-09T02:19:36;2.22;;;1.48;;
529;SDS011;251;48.704;9.210;2022-07-09T02:22:02;2.00;;;1.67;;
529;SDS011;251;48.704;9.210;2022-07-09T02:24:30;2.03;;;1.20;;
529;SDS011;251;48.704;9.210;2022-07-09T02:26:56;2.67;;;1.40;;
529;SDS011;251;48.704;9.210;2022-07-09T02:29:25;1.90;;;1.50;;
529;SDS011;251;48.704;9.210;2022-07-09T02:31:52;2.15;;;1.45;;
529;SDS011;251;48.704;9.210;2022-07-09T02:34:20;1.80;;;1.35;;
529;SDS011;251;48.704;9.210;2022-07-09T02:36:47;1.53;;;1.33;;
529;SDS011;251;48.704;9.210;2022-07-09T02:39:13;2.35;;;1.73;;
529;SDS011;251;48.704;9.210;2022-07-09T02:41:40;2.60;;;1.73;;
529;SDS011;251;48.704;9.210;2022-07-09T02:44:07;3.97;;;1.35;;
529;SDS011;251;48.704;9.210;2022-07-09T02:46:35;2.30;;;1.75;;
529;SDS011;251;48.704;9.210;2022-07-09T02:49:01;2.23;;;1.60;;
529;SDS011;251;48.704;9.210;2022-07-09T02:51:29;2.43;;;1.37;;
529;SDS011;251;48.704;9.210;2022-07-09T02:53:55;2.88;;;1.23;;
529;SDS011;251;48.704;9.210;2022-07-09T02:56:22;2.27;;;1.50;;
529;SDS011;251;48.704;9.210;2022-07-09T02:58:49;1.60;;;1.40;;
529;SDS011;251;48.704;9.210;2022-07-09T03:01:15;1.90;;;1.65;;
529;SDS011;251;48.704;9.210;2022-07-09T03:03:44;2.08;;;1.10;;
529;SDS011;251;48.704;9.210;2022-07-09T03:06:11;1.70;;;1.48;;
529;SDS011;251;48.704;9.210;2022-07-09T03:08:38;1.75;;;1.13;;
529;SDS011;251;48.704;9.210;2022-07-09T03:11:05;2.25;;;1.67;;
529;SDS011;251;48.704;9.210;2022-07-09T03:13:32;2.10;;;1.52;;
529;SDS011;251;48.704;9.210;2022-07-09T03:15:59;1.90;;;1.47;;
529;SDS011;251;48.704;9.210;2022-07-09T03:18:26;1.88;;;1.33;;
529;SDS011;251;48.704;9.210;2022-07-09T03:20:54;2.25;;;1.75;;
529;SDS011;251;48.704;9.210;2022-07-09T03:23:21;3.92;;;2.03;;
529;SDS011;251;48.704;9.210;2022-07-09T03:25:47;2.40;;;1.20;;
529;SDS011;251;48.704;9.210;2022-07-09T03:28:14;5.43;;;1.30;;
529;SDS011;251;48.704;9.210;2022-07-09T03:30:41;3.15;;;2.13;;
529;SDS011;251;48.704;9.210;2022-07-09T03:33:08;3.25;;;1.60;;
529;SDS011;251;48.704;9.210;2022-07-09T03:35:34;2.15;;;1.35;;
529;SDS011;251;48.704;9.210;2022-07-09T03:38:03;1.90;;;1.40;;
529;SDS011;251;48.704;9.210;2022-07-09T03:40:29;3.25;;;1.98;;
529;SDS011;251;48.704;9.210;2022-07-09T03:42:56;3.40;;;2.10;;
529;SDS011;251;48.704;9.210;2022-07-09T03:45:23;1.73;;;1.25;;
529;SDS011;251;48.704;9.210;2022-07-09T03:47:50;1.60;;;1.33;;
529;SDS011;251;48.704;9.210;2022-07-09T03:50:16;1.50;;;1.40;;
529;SDS011;251;48.704;9.210;2022-07-09T03:52:43;1.90;;;1.15;;
529;SDS011;251;48.704;9.210;2022-07-09T03:55:11;3.80;;;2.03;;
529;SDS011;251;48.704;9.210;2022-07-09T03:57:38;8.13;;;1.85;;
529;SDS011;251;48.704;9.210;2022-07-09T04:00:05;1.92;;;1.48;;
529;SDS011;251;48.704;9.210;2022-07-09T04:02:37;2.05;;;1.50;;
529;SDS011;251;48.704;9.210;2022-07-09T04:05:07;1.92;;;1.52;;
529;SDS011;251;48.704;9.210;2022-07-09T04:07:34;1.95;;;1.50;;
529;SDS011;251;48.704;9.210;2022-07-09T04:10:01;6.33;;;1.90;;
529;SDS011;251;48.704;9.210;2022-07-09T04:12:30;2.30;;;1.20;;
529;SDS011;251;48.704;9.210;2022-07-09T04:14:56;2.13;;;1.60;;
529;SDS011;251;48.704;9.210;2022-07-09T04:17:23;1.90;;;1.35;;
529;SDS011;251;48.704;9.210;2022-07-09T04:19:50;2.13;;;1.35;;
529;SDS011;251;48.704;9.210;2022-07-09T04:22:17;3.10;;;2.28;;
529;SDS011;251;48.704;9.210;2022-07-09T04:24:44;2.20;;;1.20;;
529;SDS011;251;48.704;9.210;2022-07-09T04:27:10;1.98;;;1.30;;
529;SDS011;251;48.704;9.210;2022-07-09T04:29:38;2.20;;;1.40;;
529;SDS011;251;48.704;9.210;2022-07-09T04:32:05;2.00;;;1.65;;
529;SDS011;251;48.704;9.210;2022-07-09T04:34:33;3.55;;;1.45;;
529;SDS011;251;48.704;9.210;2022-07-09T04:36:59;2.30;;;1.60;;
529;SDS011;251;48.704;9.210;2022-07-09T04:39:26;2.47;;;1.65;;
529;SDS011;251;48.704;9.210;2022-07-09T04:41:53;17.65;;;2.15;;
529;SDS011;251;48.704;9.210;2022-07-09T04:44:20;2.17;;;1.83;;
529;SDS011;251;48.704;9.210;2022-07-09T04:46:49;2.08;;;1.70;;
529;SDS011;251;48.704;9.210;2022-07-09T04:49:16;2.17;;;1.53;;
529;SDS011;251;48.704;9.210;2022-07-09T04:51:42;2.58;;;1.60;;
529;SDS011;251;48.704;9.210;2022-07-09T04:54:09;3.05;;;2.03;;
529;SDS011;251;48.704;9.210;2022-07-09T04:56:36;2.22;;;1.75;;
529;SDS011;251;48.704;9.210;2022-07-09T04:59:03;2.30;;;1.25;;
529;SDS011;251;48.704;9.210;2022-07-09T05:01:29;2.83;;;2.13;;
529;SDS011;251;48.704;9.210;2022-07-09T05:03:57;2.70;;;1.42;;
529;SDS011;251;48.704;9.210;2022-07-09T05:06:24;2.97;;;1.70;;
529;SDS011;251;48.704;9.210;2022-07-09T05:08:51;2.38;;;1.58;;
529;SDS011;251;48.704;9.210;2022-07-09T05:11:18;2.00;;;1.50;;
529;SDS011;251;48.704;9.210;2022-07-09T05:13:45;2.00;;;1.73;;
529;SDS011;251;48.704;9.210;2022-07-09T05:16:12;2.35;;;2.00;;
529;SDS011;251;48.704;9.210;2022-07-09T05:18:39;4.38;;;1.88;;
529;SDS011;251;48.704;9.210;2022-07-09T05:21:07;2.67;;;1.80;;
529;SDS011;251;48.704;9.210;2022-07-09T05:23:34;2.83;;;1.73;;
529;SDS011;251;48.704;9.210;2022-07-09T05:26:00;2.97;;;1.50;;
529;SDS011;251;48.704;9.210;2022-07-09T05:28:27;8.45;;;2.47;;
529;SDS011;251;48.704;9.210;2022-07-09T05:30:54;3.38;;;1.80;;
529;SDS011;251;48.704;9.210;2022-07-09T05:33:21;2.60;;;1.93;;
529;SDS011;251;48.704;9.210;2022-07-09T05:35:47;2.70;;;2.40;;
529;SDS011;251;48.704;9.210;2022-07-09T05:38:16;4.45;;;2.40;;
529;SDS011;251;48.704;9.210;2022-07-09T05:40:42;3.33;;;2.43;;
529;SDS011;251;48.704;9.210;2022-07-09T05:43:09;3.22;;;1.77;;
529;SDS011;251;48.704;9.210;2022-07-09T05:45:36;2.90;;;2.10;;
529;SDS011;251;48.704;9.210;2022-07-09T05:48:03;3.03;;;2.20;;
529;SDS011;251;48.704;9.210;2022-07-09T05:50:30;3.57;;;2.13;;
529;SDS011;251;48.704;9.210;2022-07-09T05:52:57;3.00;;;2.10;;
529;SDS011;251;48.704;9.210;2022-07-09T05:55:25;4.17;;;1.60;;
529;SDS011;251;48.704;9.210;2022-07-09T05:57:52;2.70;;;1.77;;
529;SDS011;251;48.704;9.210;2022-07-09T06:00:19;2.50;;;2.00;;
529;SDS011;251;48.704;9.210;2022-07-09T06:02:46;7.03;;;3.83;;
529;SDS011;251;48.704;9.210;2022-07-09T06:05:12;3.43;;;1.80;;
529;SDS011;251;48.704;9.210;2022-07-09T06:07:39;1.93;;;1.53;;
529;SDS011;251;48.704;9.210;2022-07-09T06:10:10;2.70;;;1.73;;
529;SDS011;251;48.704;9.210;2022-07-09T06:12:39;2.40;;;1.67;;
529;SDS011;251;48.704;9.210;2022-07-09T06:15:07;2.23;;;1.77;;
529;SDS011;251;48.704;9.210;2022-07-09T06:17:35;3.10;;;1.60;;
529;SDS011;251;48.704;9.210;2022-07-09T06:20:02;3.30;;;2.80;;
529;SDS011;251;48.704;9.210;2022-07-09T06:22:29;2.53;;;1.53;;
529;SDS011;251;48.704;9.210;2022-07-09T06:24:56;4.00;;;2.10;;
529;SDS011;251;48.704;9.210;2022-07-09T06:27:23;2.27;;;1.70;;
529;SDS011;251;48.704;9.210;2022-07-09T06:29:52;2.77;;;2.10;;
529;SDS011;251;48.704;9.210;2022-07-09T06:32:18;2.17;;;1.40;;
529;SDS011;251;48.704;9.210;2022-07-09T06:34:45;2.00;;;1.50;;
529;SDS011;251;48.704;9.210;2022-07-09T06:37:12;2.13;;;1.57;;
529;SDS011;251;48.704;9.210;2022-07-09T06:39:38;3.20;;;2.53;;
529;SDS011;251;48.704;9.210;2022-07-09T06:42:11;2.20;;;1.90;;
529;SDS011;251;48.704;9.210;2022-07-09T06:44:43;3.27;;;1.77;;
529;SDS011;251;48.704;9.210;2022-07-09T06:47:12;2.00;;;1.47;;
529;SDS011;251;48.704;9.210;2022-07-09T06:49:39;2.00;;;1.50;;
529;SDS011;251;48.704;9.210;2022-07-09T06:52:06;1.70;;;1.10;;
529;SDS011;251;48.704;9.210;2022-07-09T06:54:33;3.00;;;1.43;;
529;SDS011;251;48.704;9.210;2022-07-09T06:57:00;3.10;;;1.73;;
529;SDS011;251;48.704;9.210;2022-07-09T06:59:28;1.80;;;1.40;;
529;SDS011;251;48.704;9.210;2022-07-09T07:01:55;2.00;;;1.40;;
529;SDS011;251;48.704;9.210;2022-07-09T07:04:23;5.53;;;2.03;;
529;SDS011;251;48.704;9.210;2022-07-09T07:06:50;2.30;;;1.70;;
529;SDS011;251;48.704;9.210;2022-07-09T07:09:17;9.10;;;1.80;;
529;SDS011;251;48.704;9.210;2022-07-09T07:11:46;1.80;;;1.07;;
529;SDS011;251;48.704;9.210;2022-07-09T07:14:13;2.23;;;1.40;;
529;SDS011;251;48.704;9.210;2022-07-09T07:16:40;4.37;;;1.83;;
529;SDS011;251;48.704;9.210;2022-07-09T07:19:06;2.70;;;2.13;;
529;SDS011;251;48.704;9.210;2022-07-09T07:21:35;5.50;;;1.57;;
529;SDS011;251;48.704;9.210;2022-07-09T07:24:02;2.07;;;1.37;;
529;SDS011;251;48.704;9.210;2022-07-09T07:26:29;2.83;;;1.93;;
529;SDS011;251;48.704;9.210;2022-07-09T07:28:55;1.57;;;1.30;;
529;SDS011;251;48.704;9.210;2022-07-09T07:31:23;1.87;;;1.20;;
529;SDS011;251;48.704;9.210;2022-07-09T07:33:50;2.30;;;1.70;;
529;SDS011;251;48.704;9.210;2022-07-09T07:36:16;2.27;;;1.70;;
529;SDS011;251;48.704;9.210;2022-07-09T07:38:45;1.83;;;1.40;;
529;SDS011;251;48.704;9.210;2022-07-09T07:41:12;2.60;;;1.60;;
529;SDS011;251;48.704;9.210;2022-07-09T07:43:41;1.60;;;1.10;;
529;SDS011;251;48.704;9.210;2022-07-09T07:46:08;2.23;;;2.00;;
529;SDS011;251;48.704;9.210;2022-07-09T07:48:34;1.57;;;1.20;;
529;SDS011;251;48.704;9.210;2022-07-09T07:51:02;1.60;;;1.20;;
529;SDS011;251;48.704;9.210;2022-07-09T07:53:29;3.47;;;1.33;;
529;SDS011;251;48.704;9.210;2022-07-09T07:55:59;1.70;;;1.40;;
529;SDS011;251;48.704;9.210;2022-07-09T07:58:26;3.50;;;3.20;;
529;SDS011;251;48.704;9.210;2022-07-09T08:00:53;1.73;;;1.03;;
529;SDS011;251;48.704;9.210;2022-07-09T08:03:20;1.40;;;1.10;;
529;SDS011;251;48.704;9.210;2022-07-09T08:05:47;1.90;;;1.50;;
529;SDS011;251;48.704;9.210;2022-07-09T08:08:14;1.80;;;1.27;;
529;SDS011;251;48.704;9.210;2022-07-09T08:10:43;1.70;;;1.40;;
529;SDS011;251;48.704;9.210;2022-07-09T08:13:11;1.70;;;1.50;;
529;SDS011;251;48.704;9.210;2022-07-09T08:15:38;1.70;;;1.40;;
529;SDS011;251;48.704;9.210;2022-07-09T08:18:05;1.80;;;1.30;;
529;SDS011;251;48.704;9.210;2022-07-09T08:20:33;1.47;;;0.90;;
529;SDS011;251;48.704;9.210;2022-07-09T08:23:01;1.60;;;0.90;;
529;SDS011;251;48.704;9.210;2022-07-09T08:25:28;2.30;;;1.60;;
529;SDS011;251;48.704;9.210;2022-07-09T08:27:55;1.50;;;1.03;;
529;SDS011;251;48.704;9.210;2022-07-09T08:30:23;1.30;;;0.83;;
529;SDS011;251;48.704;9.210;2022-07-09T08:32:50;1.50;;;1.00;;
529;SDS011;251;48.704;9.210;2022-07-09T08:35:16;1.20;;;0.70;;
529;SDS011;251;48.704;9.210;2022-07-09T08:37:43;1.70;;;1.00;;
529;SDS011;251;48.704;9.210;2022-07-09T08:40:10;1.50;;;1.10;;
529;SDS011;251;48.704;9.210;2022-07-09T08:42:37;1.20;;;0.73;;
529;SDS011;251;48.704;9.210;2022-07-09T08:45:05;2.47;;;1.10;;
529;SDS011;251;48.704;9.210;2022-07-09T08:47:37;1.60;;;1.10;;
529;SDS011;251;48.704;9.210;2022-07-09T08:50:05;1.50;;;1.00;;
529;SDS011;251;48.704;9.210;2022-07-09T08:52:32;1.87;;;0.80;;
529;SDS011;251;48.704;9.210;2022-07-09T08:54:59;1.77;;;0.97;;
529;SDS011;251;48.704;9.210;2022-07-09T08:57:26;1.10;;;0.70;;
529;SDS011;251;48.704;9.210;2022-07-09T08:59:53;1.30;;;0.73;;
529;SDS011;251;48.704;9.210;2022-07-09T09:02:20;1.63;;;1.00;;
529;SDS011;251;48.704;9.210;2022-07-09T09:04:48;1.83;;;1.53;;
529;SDS011;251;48.704;9.210;2022-07-09T09:07:15;1.33;;;0.60;;
529;SDS011;251;48.704;9.210;2022-07-09T09:09:42;1.10;;;0.70;;
529;SDS011;251;48.704;9.210;2022-07-09T09:12:10;1.50;;;1.00;;
529;SDS011;251;48.704;9.210;2022-07-09T09:14:37;1.20;;;0.80;;
529;SDS011;251;48.704;9.210;2022-07-09T09:17:05;1.20;;;0.83;;
529;SDS011;251;48.704;9.210;2022-07-09T09:19:34;1.30;;;0.80;;
529;SDS011;251;48.704;9.210;2022-07-09T09:22:03;1.43;;;1.20;;
529;SDS011;251;48.704;9.210;2022-07-09T09:24:30;5.40;;;1.33;;
529;SDS011;251;48.704;9.210;2022-07-09T09:26:57;1.20;;;0.87;;
529;SDS011;251;48.704;9.210;2022-07-09T09:29:25;1.10;;;0.70;;
529;SDS011;251;48.704;9.210;2022-07-09T09:31:52;1.40;;;0.87;;
529;SDS011;251;48.704;9.210;2022-07-09T09:34:20;1.40;;;1.00;;
529;SDS011;251;48.704;9.210;2022-07-09T09:36:47;1.70;;;1.10;;
529;SDS011;251;48.704;9.210;2022-07-09T09:39:18;1.30;;;0.90;;
529;SDS011;251;48.704;9.210;2022-07-09T09:41:47;1.20;;;0.90;;
529;SDS011;251;48.704;9.210;2022-07-09T09:44:15;1.10;;;0.60;;
529;SDS011;251;48.704;9.210;2022-07-09T09:46:44;2.87;;;1.13;;
529;SDS011;251;48.704;9.210;2022-07-09T09:49:12;1.20;;;0.80;;
529;SDS011;251;48.704;9.210;2022-07-09T09:51:50;1.30;;;0.67;;
529;SDS011;251;48.704;9.210;2022-07-09T09:54:23;3.03;;;1.90;;
529;SDS011;251;48.704;9.210;2022-07-09T09:56:50;2.63;;;0.90;;
529;SDS011;251;48.704;9.210;2022-07-09T09:59:17;1.43;;;0.90;;
529;SDS011;251;48.704;9.210;2022-07-09T10:01:44;1.60;;;0.83;;
529;SDS011;251;48.704;9.210;2022-07-09T10:04:13;1.20;;;0.63;;
529;SDS011;251;48.704;9.210;2022-07-09T10:06:41;1.30;;;0.80;;
529;SDS011;251;48.704;9.210;2022-07-09T10:09:10;2.53;;;0.60;;
529;SDS011;251;48.704;9.210;2022-07-09T10:11:40;1.70;;;0.80;;
529;SDS011;251;48.704;9.210;2022-07-09T10:14:07;1.30;;;0.97;;
529;SDS011;251;48.704;9.210;2022-07-09T10:16:41;1.13;;;0.70;;
529;SDS011;251;48.704;9.210;2022-07-09T10:19:07;1.30;;;0.97;;
529;SDS011;251;48.704;9.210;2022-07-09T10:21:35;1.50;;;0.90;;
529;SDS011;251;48.704;9.210;2022-07-09T10:24:03;2.60;;;1.10;;
529;SDS011;251;48.704;9.210;2022-07-09T10:26:34;1.30;;;0.70;;
529;SDS011;251;48.704;9.210;2022-07-09T10:29:16;1.20;;;0.63;;
529;SDS011;251;48.704;9.210;2022-07-09T10:31:45;2.37;;;1.10;;
529;SDS011;251;48.704;9.210;2022-07-09T10:34:24;1.27;;;0.93;;
529;SDS011;251;48.704;9.210;2022-07-09T10:37:11;1.80;;;0.83;;
529;SDS011;251;48.704;9.210;2022-07-09T10:39:38;1.47;;;0.83;;
529;SDS011;251;48.704;9.210;2022-07-09T10:42:05;1.90;;;0.97;;
529;SDS011;251;48.704;9.210;2022-07-09T10:44:34;1.93;;;0.93;;
529;SDS011;251;48.704;9.210;2022-07-09T10:47:02;1.80;;;1.00;;
529;SDS011;251;48.704;9.210;2022-07-09T10:49:30;1.10;;;0.70;;
529;SDS011;251;48.704;9.210;2022-07-09T10:51:59;1.40;;;1.03;;
529;SDS011;251;48.704;9.210;2022-07-09T10:54:26;1.90;;;1.07;;
529;SDS011;251;48.704;9.210;2022-07-09T10:56:54;1.20;;;0.77;;
529;SDS011;251;48.704;9.210;2022-07-09T10:59:21;1.60;;;1.00;;
529;SDS011;251;48.704;9.210;2022-07-09T11:01:50;1.60;;;0.83;;
529;SDS011;251;48.704;9.210;2022-07-09T11:04:27;1.30;;;0.80;;
529;SDS011;251;48.704;9.210;2022-07-09T11:06:55;1.20;;;0.83;;
529;SDS011;251;48.704;9.210;2022-07-09T11:09:22;1.40;;;1.00;;
529;SDS011;251;48.704;9.210;2022-07-09T11:11:53;1.40;;;0.90;;
529;SDS011;251;48.704;9.210;2022-07-09T11:14:19;1.50;;;1.00;;
529;SDS011;251;48.704;9.210;2022-07-09T11:16:54;1.40;;;1.00;;
529;SDS011;251;48.704;9.210;2022-07-09T11:19:21;1.27;;;0.80;;
529;SDS011;251;48.704;9.210;2022-07-09T11:21:48;1.40;;;1.00;;
529;SDS011;251;48.704;9.210;2022-07-09T11:24:17;1.10;;;0.70;;
529;SDS011;251;48.704;9.210;2022-07-09T11:26:46;1.60;;;0.80;;
529;SDS011;251;48.704;9.210;2022-07-09T11:29:13;1.30;;;0.80;;
529;SDS011;251;48.704;9.210;2022-07-09T11:31:45;1.43;;;0.90;;
529;SDS011;251;48.704;9.210;2022-07-09T11:34:14;1.10;;;0.80;;
529;SDS011;251;48.704;9.210;2022-07-09T11:36:42;1.37;;;0.77;;
529;SDS011;251;48.704;9.210;2022-07-09T11:39:15;1.10;;;0.70;;
529;SDS011;251;48.704;9.210;2022-07-09T11:41:48;1.13;;;0.80;;
529;SDS011;251;48.704;9.210;2022-07-09T11:44:19;1.50;;;0.80;;
529;SDS011;251;48.704;9.210;2022-07-09T11:46:58;1.33;;;0.80;;
529;SDS011;251;48.704;9.210;2022-07-09T11:49:32;1.50;;;0.97;;
529;SDS011;251;48.704;9.210;2022-07-09T11:52:00;1.20;;;0.70;;
529;SDS011;251;48.704;9.210;2022-07-09T11:54:27;1.20;;;0.80;;
529;SDS011;251;48.704;9.210;2022-07-09T11:56:54;1.10;;;0.63;;
529;SDS011;251;48.704;9.210;2022-07-09T11:59:27;1.33;;;0.90;;
529;SDS011;251;48.704;9.210;2022-07-09T12:01:57;1.27;;;0.80;;
529;SDS011;251;48.704;9.210;2022-07-09T12:04:24;7.43;;;0.80;;
529;SDS011;251;48.704;9.210;2022-07-09T12:06:55;1.20;;;0.80;;
529;SDS011;251;48.704;9.210;2022-07-09T12:09:29;1.20;;;0.83;;
529;SDS011;251;48.704;9.210;2022-07-09T12:11:56;1.87;;;0.67;;
529;SDS011;251;48.704;9.210;2022-07-09T12:14:24;1.20;;;0.70;;
529;SDS011;251;48.704;9.210;2022-07-09T12:16:51;1.13;;;0.60;;
529;SDS011;251;48.704;9.210;2022-07-09T12:19:18;1.33;;;0.73;;
529;SDS011;251;48.704;9.210;2022-07-09T12:21:45;1.10;;;0.70;;
529;SDS011;251;48.704;9.210;2022-07-09T12:24:15;1.20;;;0.80;;
529;SDS011;251;48.704;9.210;2022-07-09T12:26:41;1.80;;;1.00;;
529;SDS011;251;48.704;9.210;2022-07-09T12:29:08;1.10;;;0.67;;
529;SDS011;251;48.704;9.210;2022-07-09T12:31:35;2.40;;;1.10;;
529;SDS011;251;48.704;9.210;2022-07-09T12:34:03;1.13;;;0.67;;
529;SDS011;251;48.704;9.210;2022-07-09T12:36:30;1.10;;;0.70;;
529;SDS011;251;48.704;9.210;2022-07-09T12:38:57;2.00;;;1.00;;
529;SDS011;251;48.704;9.210;2022-07-09T12:41:25;1.20;;;0.70;;
529;SDS011;251;48.704;9.210;2022-07-09T12:43:52;1.30;;;0.80;;
529;SDS011;251;48.704;9.210;2022-07-09T12:46:19;1.80;;;1.30;;
529;SDS011;251;48.704;9.210;2022-07-09T12:48:45;1.10;;;0.60;;
529;SDS011;251;48.704;9.210;2022-07-09T12:51:12;6.93;;;1.37;;
529;SDS011;251;48.704;9.210;2022-07-09T12:53:39;1.77;;;1.10;;
529;SDS011;251;48.704;9.210;2022-07-09T12:56:06;1.10;;;0.67;;
529;SDS011;251;48.704;9.210;2022-07-09T12:58:34;3.40;;;1.10;;
529;SDS011;251;48.704;9.210;2022-07-09T13:01:01;1.50;;;1.13;;
529;SDS011;251;48.704;9.210;2022-07-09T13:03:27;2.00;;;0.80;;
529;SDS011;251;48.704;9.210;2022-07-09T13:05:55;1.20;;;0.77;;
529;SDS011;251;48.704;9.210;2022-07-09T13:08:22;1.23;;;0.90;;
529;SDS011;251;48.704;9.210;2022-07-09T13:10:48;1.20;;;0.90;;
529;SDS011;251;48.704;9.210;2022-07-09T13:13:15;1.73;;;0.97;;
529;SDS011;251;48.704;9.210;2022-07-09T13:15:44;1.30;;;0.90;;
529;SDS011;251;48.704;9.210;2022-07-09T13:18:11;1.20;;;0.70;;
529;SDS011;251;48.704;9.210;2022-07-09T13:20:38;1.10;;;0.60;;
529;SDS011;251;48.704;9.210;2022-07-09T13:23:04;1.13;;;0.70;;
529;SDS011;251;48.704;9.210;2022-07-09T13:25:31;1.77;;;0.80;;
529;SDS011;251;48.704;9.210;2022-07-09T13:27:58;2.80;;;0.93;;
529;SDS011;251;48.704;9.210;2022-07-09T13:30:25;1.60;;;0.97;;
529;SDS011;251;48.704;9.210;2022-07-09T13:32:53;1.30;;;0.77;;
529;SDS011;251;48.704;9.210;2022-07-09T13:35:19;1.17;;;0.77;;
529;SDS011;251;48.704;9.210;2022-07-09T13:37:46;1.20;;;0.83;;
529;SDS011;251;48.704;9.210;2022-07-09T13:40:13;1.20;;;0.70;;
529;SDS011;251;48.704;9.210;2022-07-09T13:42:40;4.03;;;1.00;;
529;SDS011;251;48.704;9.210;2022-07-09T13:45:07;1.20;;;0.67;;
529;SDS011;251;48.704;9.210;2022-07-09T13:47:35;1.10;;;0.70;;
529;SDS011;251;48.704;9.210;2022-07-09T13:50:03;1.10;;;0.60;;
529;SDS011;251;48.704;9.210;2022-07-09T13:52:30;1.10;;;0.60;;
529;SDS011;251;48.704;9.210;2022-07-09T13:54:57;1.73;;;1.00;;
529;SDS011;251;48.704;9.210;2022-07-09T13:57:24;2.07;;;0.87;;
529;SDS011;251;48.704;9.210;2022-07-09T13:59:51;1.20;;;0.80;;
529;SDS011;251;48.704;9.210;2022-07-09T14:02:18;1.10;;;0.60;;
529;SDS011;251;48.704;9.210;2022-07-09T14:04:44;1.10;;;0.70;;
529;SDS011;251;48.704;9.210;2022-07-09T14:07:13;1.27;;;0.90;;
529;SDS011;251;48.704;9.210;2022-07-09T14:09:40;1.10;;;0.60;;
529;SDS011;251;48.704;9.210;2022-07-09T14:12:07;1.57;;;0.80;;
529;SDS011;251;48.704;9.210;2022-07-09T14:14:34;1.10;;;0.70;;
529;SDS011;251;48.704;9.210;2022-07-09T14:17:01;1.30;;;0.80;;
529;SDS011;251;48.704;9.210;2022-07-09T14:19:27;1.57;;;0.87;;
529;SDS011;251;48.704;9.210;2022-07-09T14:21:54;1.20;;;0.60;;
529;SDS011;251;48.704;9.210;2022-07-09T14:24:22;1.47;;;0.70;;
529;SDS011;251;48.704;9.210;2022-07-09T14:26:50;1.30;;;0.70;;
529;SDS011;251;48.704;9.210;2022-07-09T14:29:17;1.40;;;0.90;;
529;SDS011;251;48.704;9.210;2022-07-09T14:31:44;1.10;;;0.70;;
529;SDS011;251;48.704;9.210;2022-07-09T14:34:11;1.10;;;0.70;;
529;SDS011;251;48.704;9.210;2022-07-09T14:36:37;1.10;;;0.67;;
529;SDS011;251;48.704;9.210;2022-07-09T14:39:04;1.10;;;0.80;;
529;SDS011;251;48.704;9.210;2022-07-09T14:41:32;1.47;;;0.73;;
529;SDS011;251;48.704;9.210;2022-07-09T14:44:00;1.00;;;0.60;;
529;SDS011;251;48.704;9.210;2022-07-09T14:46:27;3.20;;;1.07;;
529;SDS011;251;48.704;9.210;2022-07-09T14:48:54;1.10;;;0.60;;
529;SDS011;251;48.704;9.210;2022-07-09T14:51:20;1.10;;;0.80;;
529;SDS011;251;48.704;9.210;2022-07-09T14:53:47;1.10;;;0.70;;
529;SDS011;251;48.704;9.210;2022-07-09T14:56:14;1.17;;;0.80;;
529;SDS011;251;48.704;9.210;2022-07-09T14:58:42;1.20;;;0.80;;
529;SDS011;251;48.704;9.210;2022-07-09T15:01:09;1.30;;;1.00;;
529;SDS011;251;48.704;9.210;2022-07-09T15:03:36;1.20;;;0.87;;
529;SDS011;251;48.704;9.210;2022-07-09T15:06:03;1.47;;;1.00;;
529;SDS011;251;48.704;9.210;2022-07-09T15:08:30;1.73;;;1.40;;
529;SDS011;251;48.704;9.210;2022-07-09T15:10:57;1.10;;;0.67;;
529;SDS011;251;48.704;9.210;2022-07-09T15:13:25;2.60;;;0.83;;
529;SDS011;251;48.704;9.210;2022-07-09T15:15:53;3.47;;;1.27;;
529;SDS011;251;48.704;9.210;2022-07-09T15:18:20;1.87;;;0.93;;
529;SDS011;251;48.704;9.210;2022-07-09T15:20:47;1.30;;;0.90;;
529;SDS011;251;48.704;9.210;2022-07-09T15:23:14;1.27;;;0.70;;
529;SDS011;251;48.704;9.210;2022-07-09T15:25:41;1.10;;;0.70;;
529;SDS011;251;48.704;9.210;2022-07-09T15:28:08;1.20;;;0.93;;
529;SDS011;251;48.704;9.210;2022-07-09T15:30:38;1.40;;;0.90;;
529;SDS011;251;48.704;9.210;2022-07-09T15:33:06;1.40;;;0.80;;
529;SDS011;251;48.704;9.210;2022-07-09T15:35:34;1.57;;;1.10;;
529;SDS011;251;48.704;9.210;2022-07-09T15:38:00;1.10;;;0.70;;
529;SDS011;251;48.704;9.210;2022-07-09T15:40:27;1.23;;;0.90;;
529;SDS011;251;48.704;9.210;2022-07-09T15:42:54;1.87;;;0.97;;
529;SDS011;251;48.704;9.210;2022-07-09T15:45:21;1.40;;;1.00;;
529;SDS011;251;48.704;9.210;2022-07-09T15:47:47;1.33;;;1.00;;